sensor_id;sensor_type;location;lat;lon;timestamp;temperature;humidity
3300;DHT22;1662;49.310;8.134;2023-04-06T00:01:39;5.70;91.70
3300;DHT22;1662;49.310;8.134;2023-04-06T00:04:05;5.70;91.50
3300;DHT22;1662;49.310;8.134;2023-04-06T00:06:31;5.60;91.60
3300;DHT22;1662;49.310;8.134;2023-04-06T00:09:00;5.60;92.20
3300;DHT22;1662;49.310;8.134;2023-04-06T00:11:26;5.60;93.00
3300;DHT22;1662;49.310;8.134;2023-04-06T00:13:52;5.60;92.60
3300;DHT22;1662;49.310;8.134;2023-04-06T00:16:18;5.60;92.40
3300;DHT22;1662;49.310;8.134;2023-04-06T00:18:43;5.50;92.60
3300;DHT22;1662;49.310;8.134;2023-04-06T00:21:13;5.60;92.50
3300;DHT22;1662;49.310;8.134;2023-04-06T00:23:40;5.50;92.50
3300;DHT22;1662;49.310;8.134;2023-04-06T00:26:06;5.50;93.20
3300;DHT22;1662;49.310;8.134;2023-04-06T00:28:31;5.40;93.40
3300;DHT22;1662;49.310;8.134;2023-04-06T00:30:57;5.40;93.70
3300;DHT22;1662;49.310;8.134;2023-04-06T00:33:23;5.40;94.10
3300;DHT22;1662;49.310;8.134;2023-04-06T00:35:49;5.40;94.50
3300;DHT22;1662;49.310;8.134;2023-04-06T00:38:17;5.40;94.90
3300;DHT22;1662;49.310;8.134;2023-04-06T00:40:43;5.30;94.70
3300;DHT22;1662;49.310;8.134;2023-04-06T00:43:12;5.30;95.80
3300;DHT22;1662;49.310;8.134;2023-04-06T00:45:41;5.30;96.40
3300;DHT22;1662;49.310;8.134;2023-04-06T00:48:08;5.20;97.70
3300;DHT22;1662;49.310;8.134;2023-04-06T00:50:34;5.10;99.90
3300;DHT22;1662;49.310;8.134;2023-04-06T00:53:00;5.10;99.90
3300;DHT22;1662;49.310;8.134;2023-04-06T00:55:27;5.10;99.90
3300;DHT22;1662;49.310;8.134;2023-04-06T00:57:53;5.10;99.90
3300;DHT22;1662;49.310;8.134;2023-04-06T01:00:19;4.90;99.90
3300;DHT22;1662;49.310;8.134;2023-04-06T01:02:45;5.00;99.90
3300;DHT22;1662;49.310;8.134;2023-04-06T01:05:14;5.00;99.90
3300;DHT22;1662;49.310;8.134;2023-04-06T01:07:40;4.90;99.90
3300;DHT22;1662;49.310;8.134;2023-04-06T01:10:06;5.00;99.90
3300;DHT22;1662;49.310;8.134;2023-04-06T01:12:32;5.00;99.90
3300;DHT22;1662;49.310;8.134;2023-04-06T01:14:57;4.90;99.90
3300;DHT22;1662;49.310;8.134;2023-04-06T01:17:23;4.90;99.90
3300;DHT22;1662;49.310;8.134;2023-04-06T01:19:49;4.80;99.90
3300;DHT22;1662;49.310;8.134;2023-04-06T01:22:18;4.70;99.90
3300;DHT22;1662;49.310;8.134;2023-04-06T01:24:44;4.70;99.90
3300;DHT22;1662;49.310;8.134;2023-04-06T01:27:10;4.60;99.90
3300;DHT22;1662;49.310;8.134;2023-04-06T01:29:39;4.70;99.90
3300;DHT22;1662;49.310;8.134;2023-04-06T01:32:08;4.60;99.90
3300;DHT22;1662;49.310;8.134;2023-04-06T01:34:34;4.60;99.90
3300;DHT22;1662;49.310;8.134;2023-04-06T01:37:00;4.70;99.90
3300;DHT22;1662;49.310;8.134;2023-04-06T01:39:25;4.60;99.90
3300;DHT22;1662;49.310;8.134;2023-04-06T01:41:51;4.50;99.90
3300;DHT22;1662;49.310;8.134;2023-04-06T01:44:19;4.60;99.90
3300;DHT22;1662;49.310;8.134;2023-04-06T01:46:45;4.50;99.90
3300;DHT22;1662;49.310;8.134;2023-04-06T01:49:11;4.60;99.90
3300;DHT22;1662;49.310;8.134;2023-04-06T01:51:37;4.50;99.90
3300;DHT22;1662;49.310;8.134;2023-04-06T01:54:03;4.60;99.90
3300;DHT22;1662;49.310;8.134;2023-04-06T01:56:28;4.50;99.90
3300;DHT22;1662;49.310;8.134;2023-04-06T01:58:54;4.50;99.90
3300;DHT22;1662;49.310;8.134;2023-04-06T02:01:20;4.50;99.90
3300;DHT22;1662;49.310;8.134;2023-04-06T02:03:46;4.40;99.90
3300;DHT22;1662;49.310;8.134;2023-04-06T02:06:12;4.40;99.90
3300;DHT22;1662;49.310;8.134;2023-04-06T02:08:37;4.40;99.90
3300;DHT22;1662;49.310;8.134;2023-04-06T02:11:03;4.40;99.90
3300;DHT22;1662;49.310;8.134;2023-04-06T02:13:29;4.40;99.90
3300;DHT22;1662;49.310;8.134;2023-04-06T02:15:55;4.40;99.90
3300;DHT22;1662;49.310;8.134;2023-04-06T02:18:20;4.40;99.90
3300;DHT22;1662;49.310;8.134;2023-04-06T02:20:46;4.30;99.90
3300;DHT22;1662;49.310;8.134;2023-04-06T02:23:12;4.30;99.90
3300;DHT22;1662;49.310;8.134;2023-04-06T02:25:40;4.10;99.90
3300;DHT22;1662;49.310;8.134;2023-04-06T02:28:06;4.30;99.90
3300;DHT22;1662;49.310;8.134;2023-04-06T02:30:32;4.10;99.90
3300;DHT22;1662;49.310;8.134;2023-04-06T02:33:01;4.10;99.90
3300;DHT22;1662;49.310;8.134;2023-04-06T02:35:30;4.00;99.90
3300;DHT22;1662;49.310;8.134;2023-04-06T02:37:56;4.00;99.90
3300;DHT22;1662;49.310;8.134;2023-04-06T02:40:22;4.00;99.90
3300;DHT22;1662;49.310;8.134;2023-04-06T02:42:48;4.00;99.90
3300;DHT22;1662;49.310;8.134;2023-04-06T02:45:13;4.00;99.90
3300;DHT22;1662;49.310;8.134;2023-04-06T02:47:42;4.00;99.90
3300;DHT22;1662;49.310;8.134;2023-04-06T02:50:08;4.00;99.90
3300;DHT22;1662;49.310;8.134;2023-04-06T02:52:33;4.00;99.90
3300;DHT22;1662;49.310;8.134;2023-04-06T02:54:59;3.90;99.90
3300;DHT22;1662;49.310;8.134;2023-04-06T02:57:24;3.90;99.90
3300;DHT22;1662;49.310;8.134;2023-04-06T02:59:50;3.90;99.90
3300;DHT22;1662;49.310;8.134;2023-04-06T03:02:16;3.90;99.90
3300;DHT22;1662;49.310;8.134;2023-04-06T03:04:44;4.00;99.90
3300;DHT22;1662;49.310;8.134;2023-04-06T03:07:09;3.90;99.90
3300;DHT22;1662;49.310;8.134;2023-04-06T03:09:37;3.90;99.90
3300;DHT22;1662;49.310;8.134;2023-04-06T03:12:03;3.80;99.90
3300;DHT22;1662;49.310;8.134;2023-04-06T03:14:28;3.80;99.90
3300;DHT22;1662;49.310;8.134;2023-04-06T03:16:54;3.80;99.90
3300;DHT22;1662;49.310;8.134;2023-04-06T03:19:20;3.80;99.90
3300;DHT22;1662;49.310;8.134;2023-04-06T03:21:45;3.80;99.90
3300;DHT22;1662;49.310;8.134;2023-04-06T03:24:11;3.70;99.90
3300;DHT22;1662;49.310;8.134;2023-04-06T03:26:39;3.70;99.90
3300;DHT22;1662;49.310;8.134;2023-04-06T03:29:05;3.70;99.90
3300;DHT22;1662;49.310;8.134;2023-04-06T03:31:30;3.70;99.90
3300;DHT22;1662;49.310;8.134;2023-04-06T03:33:56;3.70;99.90
3300;DHT22;1662;49.310;8.134;2023-04-06T03:36:22;3.70;99.90
3300;DHT22;1662;49.310;8.134;2023-04-06T03:38:47;3.70;99.90
3300;DHT22;1662;49.310;8.134;2023-04-06T03:41:13;3.70;99.90
3300;DHT22;1662;49.310;8.134;2023-04-06T03:43:39;3.60;99.90
3300;DHT22;1662;49.310;8.134;2023-04-06T03:46:04;3.50;99.90
3300;DHT22;1662;49.310;8.134;2023-04-06T03:48:30;3.50;99.90
3300;DHT22;1662;49.310;8.134;2023-04-06T03:50:56;3.40;99.90
3300;DHT22;1662;49.310;8.134;2023-04-06T03:53:22;3.50;99.90
3300;DHT22;1662;49.310;8.134;2023-04-06T03:55:47;3.50;99.90
3300;DHT22;1662;49.310;8.134;2023-04-06T03:58:13;3.50;99.90
3300;DHT22;1662;49.310;8.134;2023-04-06T04:00:38;3.50;99.90
3300;DHT22;1662;49.310;8.134;2023-04-06T04:03:04;3.50;99.90
3300;DHT22;1662;49.310;8.134;2023-04-06T04:05:30;3.50;99.90
3300;DHT22;1662;49.310;8.134;2023-04-06T04:07:55;3.50;99.90
3300;DHT22;1662;49.310;8.134;2023-04-06T04:10:21;3.50;99.90
3300;DHT22;1662;49.310;8.134;2023-04-06T04:12:47;3.50;99.90
3300;DHT22;1662;49.310;8.134;2023-04-06T04:15:12;3.50;99.90
3300;DHT22;1662;49.310;8.134;2023-04-06T04:17:38;3.50;99.90
3300;DHT22;1662;49.310;8.134;2023-04-06T04:20:04;3.50;99.90
3300;DHT22;1662;49.310;8.134;2023-04-06T04:22:30;3.50;99.90
3300;DHT22;1662;49.310;8.134;2023-04-06T04:24:55;3.50;99.90
3300;DHT22;1662;49.310;8.134;2023-04-06T04:27:21;3.50;99.90
3300;DHT22;1662;49.310;8.134;2023-04-06T04:29:47;3.40;99.90
3300;DHT22;1662;49.310;8.134;2023-04-06T04:32:12;3.40;99.90
3300;DHT22;1662;49.310;8.134;2023-04-06T04:34:38;3.40;99.90
3300;DHT22;1662;49.310;8.134;2023-04-06T04:37:06;3.50;99.90
3300;DHT22;1662;49.310;8.134;2023-04-06T04:39:32;3.40;99.90
3300;DHT22;1662;49.310;8.134;2023-04-06T04:41:58;3.30;99.90
3300;DHT22;1662;49.310;8.134;2023-04-06T04:44:23;3.40;99.90
3300;DHT22;1662;49.310;8.134;2023-04-06T04:46:49;3.30;99.90
3300;DHT22;1662;49.310;8.134;2023-04-06T04:49:15;3.40;99.90
3300;DHT22;1662;49.310;8.134;2023-04-06T04:51:41;3.40;99.90
3300;DHT22;1662;49.310;8.134;2023-04-06T04:54:06;3.30;99.90
3300;DHT22;1662;49.310;8.134;2023-04-06T04:56:34;3.30;99.90
3300;DHT22;1662;49.310;8.134;2023-04-06T04:59:00;4.40;99.90
3300;DHT22;1662;49.310;8.134;2023-04-06T05:01:26;4.50;99.90
3300;DHT22;1662;49.310;8.134;2023-04-06T05:03:51;4.40;99.90
3300;DHT22;1662;49.310;8.134;2023-04-06T05:06:17;4.10;99.90
3300;DHT22;1662;49.310;8.134;2023-04-06T05:08:44;4.00;99.90
3300;DHT22;1662;49.310;8.134;2023-04-06T05:11:12;3.80;99.90
3300;DHT22;1662;49.310;8.134;2023-04-06T05:13:38;3.70;99.90
3300;DHT22;1662;49.310;8.134;2023-04-06T05:16:06;3.60;99.90
3300;DHT22;1662;49.310;8.134;2023-04-06T05:18:31;3.50;99.90
3300;DHT22;1662;49.310;8.134;2023-04-06T05:20:57;3.60;99.90
3300;DHT22;1662;49.310;8.134;2023-04-06T05:23:22;3.50;99.90
3300;DHT22;1662;49.310;8.134;2023-04-06T05:25:49;3.50;99.90
3300;DHT22;1662;49.310;8.134;2023-04-06T05:28:14;3.40;99.90
3300;DHT22;1662;49.310;8.134;2023-04-06T05:30:42;3.30;99.90
3300;DHT22;1662;49.310;8.134;2023-04-06T05:33:09;3.30;99.90
3300;DHT22;1662;49.310;8.134;2023-04-06T05:35:34;3.30;99.90
3300;DHT22;1662;49.310;8.134;2023-04-06T05:38:00;3.30;99.90
3300;DHT22;1662;49.310;8.134;2023-04-06T05:40:26;3.40;99.90
3300;DHT22;1662;49.310;8.134;2023-04-06T05:42:53;3.30;99.90
3300;DHT22;1662;49.310;8.134;2023-04-06T05:45:20;3.30;99.90
3300;DHT22;1662;49.310;8.134;2023-04-06T05:47:46;3.30;99.90
3300;DHT22;1662;49.310;8.134;2023-04-06T05:50:14;3.30;99.90
3300;DHT22;1662;49.310;8.134;2023-04-06T05:52:40;3.20;99.90
3300;DHT22;1662;49.310;8.134;2023-04-06T05:55:08;3.30;99.90
3300;DHT22;1662;49.310;8.134;2023-04-06T05:57:34;3.30;99.90
3300;DHT22;1662;49.310;8.134;2023-04-06T06:00:00;3.30;99.90
3300;DHT22;1662;49.310;8.134;2023-04-06T06:02:26;3.30;99.90
3300;DHT22;1662;49.310;8.134;2023-04-06T06:04:51;3.30;99.90
3300;DHT22;1662;49.310;8.134;2023-04-06T06:07:17;3.30;99.90
3300;DHT22;1662;49.310;8.134;2023-04-06T06:09:43;3.30;99.90
3300;DHT22;1662;49.310;8.134;2023-04-06T06:12:09;3.40;99.90
3300;DHT22;1662;49.310;8.134;2023-04-06T06:14:34;3.40;99.90
3300;DHT22;1662;49.310;8.134;2023-04-06T06:17:00;3.40;99.90
3300;DHT22;1662;49.310;8.134;2023-04-06T06:19:25;3.40;99.90
3300;DHT22;1662;49.310;8.134;2023-04-06T06:21:51;3.40;99.90
3300;DHT22;1662;49.310;8.134;2023-04-06T06:24:17;3.40;99.90
3300;DHT22;1662;49.310;8.134;2023-04-06T06:26:42;3.40;99.90
3300;DHT22;1662;49.310;8.134;2023-04-06T06:29:10;3.40;99.90
3300;DHT22;1662;49.310;8.134;2023-04-06T06:31:36;3.40;99.90
3300;DHT22;1662;49.310;8.134;2023-04-06T06:34:01;3.40;99.90
3300;DHT22;1662;49.310;8.134;2023-04-06T06:36:28;3.40;99.90
3300;DHT22;1662;49.310;8.134;2023-04-06T06:38:54;3.40;99.90
3300;DHT22;1662;49.310;8.134;2023-04-06T06:41:20;3.40;99.90
3300;DHT22;1662;49.310;8.134;2023-04-06T06:43:46;3.40;99.90
3300;DHT22;1662;49.310;8.134;2023-04-06T06:46:11;3.50;99.90
3300;DHT22;1662;49.310;8.134;2023-04-06T06:48:37;3.80;99.90
3300;DHT22;1662;49.310;8.134;2023-04-06T06:51:03;4.00;99.90
3300;DHT22;1662;49.310;8.134;2023-04-06T06:53:28;4.10;99.90
3300;DHT22;1662;49.310;8.134;2023-04-06T06:55:54;4.00;99.90
3300;DHT22;1662;49.310;8.134;2023-04-06T06:58:20;4.00;99.90
3300;DHT22;1662;49.310;8.134;2023-04-06T07:00:46;4.00;99.90
3300;DHT22;1662;49.310;8.134;2023-04-06T07:03:15;3.90;99.90
3300;DHT22;1662;49.310;8.134;2023-04-06T07:05:48;3.90;99.90
3300;DHT22;1662;49.310;8.134;2023-04-06T07:08:18;3.90;99.90
3300;DHT22;1662;49.310;8.134;2023-04-06T07:10:44;3.90;99.90
3300;DHT22;1662;49.310;8.134;2023-04-06T07:13:10;3.90;99.90
3300;DHT22;1662;49.310;8.134;2023-04-06T07:15:36;4.00;99.90
3300;DHT22;1662;49.310;8.134;2023-04-06T07:18:02;4.00;99.90
3300;DHT22;1662;49.310;8.134;2023-04-06T07:20:28;4.10;99.90
3300;DHT22;1662;49.310;8.134;2023-04-06T07:22:53;4.10;99.90
3300;DHT22;1662;49.310;8.134;2023-04-06T07:25:19;4.20;99.90
3300;DHT22;1662;49.310;8.134;2023-04-06T07:27:45;4.20;99.90
3300;DHT22;1662;49.310;8.134;2023-04-06T07:30:11;4.30;99.90
3300;DHT22;1662;49.310;8.134;2023-04-06T07:32:36;4.40;99.90
3300;DHT22;1662;49.310;8.134;2023-04-06T07:35:02;4.60;99.90
3300;DHT22;1662;49.310;8.134;2023-04-06T07:37:28;4.60;99.90
3300;DHT22;1662;49.310;8.134;2023-04-06T07:39:54;4.60;99.90
3300;DHT22;1662;49.310;8.134;2023-04-06T07:42:20;4.70;99.90
3300;DHT22;1662;49.310;8.134;2023-04-06T07:44:45;4.70;99.90
3300;DHT22;1662;49.310;8.134;2023-04-06T07:47:11;4.80;99.90
3300;DHT22;1662;49.310;8.134;2023-04-06T07:49:36;4.90;99.90
3300;DHT22;1662;49.310;8.134;2023-04-06T07:52:03;5.00;99.90
3300;DHT22;1662;49.310;8.134;2023-04-06T07:54:28;5.00;99.90
3300;DHT22;1662;49.310;8.134;2023-04-06T07:56:54;5.10;99.90
3300;DHT22;1662;49.310;8.134;2023-04-06T07:59:22;5.20;99.90
3300;DHT22;1662;49.310;8.134;2023-04-06T08:01:48;5.30;99.90
3300;DHT22;1662;49.310;8.134;2023-04-06T08:04:14;5.40;99.90
3300;DHT22;1662;49.310;8.134;2023-04-06T08:06:39;5.50;99.90
3300;DHT22;1662;49.310;8.134;2023-04-06T08:09:06;5.70;99.90
3300;DHT22;1662;49.310;8.134;2023-04-06T08:11:31;5.90;99.90
3300;DHT22;1662;49.310;8.134;2023-04-06T08:13:57;6.20;99.90
3300;DHT22;1662;49.310;8.134;2023-04-06T08:16:23;6.30;99.90
3300;DHT22;1662;49.310;8.134;2023-04-06T08:18:49;6.40;99.90
3300;DHT22;1662;49.310;8.134;2023-04-06T08:21:15;6.60;99.90
3300;DHT22;1662;49.310;8.134;2023-04-06T08:23:41;6.70;99.90
3300;DHT22;1662;49.310;8.134;2023-04-06T08:26:06;6.80;99.90
3300;DHT22;1662;49.310;8.134;2023-04-06T08:28:32;6.80;99.90
3300;DHT22;1662;49.310;8.134;2023-04-06T08:31:07;7.00;99.90
3300;DHT22;1662;49.310;8.134;2023-04-06T08:33:33;7.00;99.90
3300;DHT22;1662;49.310;8.134;2023-04-06T08:36:09;7.10;99.90
3300;DHT22;1662;49.310;8.134;2023-04-06T08:38:35;7.10;99.90
3300;DHT22;1662;49.310;8.134;2023-04-06T08:41:10;7.30;99.90
3300;DHT22;1662;49.310;8.134;2023-04-06T08:43:50;7.40;99.90
3300;DHT22;1662;49.310;8.134;2023-04-06T08:46:23;7.50;99.90
3300;DHT22;1662;49.310;8.134;2023-04-06T08:48:58;7.60;99.90
3300;DHT22;1662;49.310;8.134;2023-04-06T08:51:25;7.70;99.90
3300;DHT22;1662;49.310;8.134;2023-04-06T08:53:52;7.80;99.90
3300;DHT22;1662;49.310;8.134;2023-04-06T08:56:21;8.00;99.90
3300;DHT22;1662;49.310;8.134;2023-04-06T08:58:47;8.00;99.90
3300;DHT22;1662;49.310;8.134;2023-04-06T09:01:15;8.10;99.90
3300;DHT22;1662;49.310;8.134;2023-04-06T09:03:42;8.20;99.90
3300;DHT22;1662;49.310;8.134;2023-04-06T09:06:09;8.30;99.90
3300;DHT22;1662;49.310;8.134;2023-04-06T09:08:36;8.50;99.90
3300;DHT22;1662;49.310;8.134;2023-04-06T09:11:02;8.50;99.90
3300;DHT22;1662;49.310;8.134;2023-04-06T09:13:31;8.60;99.90
3300;DHT22;1662;49.310;8.134;2023-04-06T09:16:05;8.80;99.90
3300;DHT22;1662;49.310;8.134;2023-04-06T09:18:33;8.90;99.90
3300;DHT22;1662;49.310;8.134;2023-04-06T09:21:04;9.00;99.90
3300;DHT22;1662;49.310;8.134;2023-04-06T09:23:30;9.10;99.90
3300;DHT22;1662;49.310;8.134;2023-04-06T09:26:09;9.50;99.90
3300;DHT22;1662;49.310;8.134;2023-04-06T09:28:45;9.40;99.90
3300;DHT22;1662;49.310;8.134;2023-04-06T09:31:13;9.50;99.90
3300;DHT22;1662;49.310;8.134;2023-04-06T09:33:42;9.70;99.90
3300;DHT22;1662;49.310;8.134;2023-04-06T09:36:08;9.80;99.90
3300;DHT22;1662;49.310;8.134;2023-04-06T09:38:38;9.90;99.90
3300;DHT22;1662;49.310;8.134;2023-04-06T09:41:06;10.10;99.90
3300;DHT22;1662;49.310;8.134;2023-04-06T09:43:32;10.20;99.90
3300;DHT22;1662;49.310;8.134;2023-04-06T09:46:00;10.30;99.90
3300;DHT22;1662;49.310;8.134;2023-04-06T09:48:29;10.50;99.90
3300;DHT22;1662;49.310;8.134;2023-04-06T09:51:03;10.60;99.90
3300;DHT22;1662;49.310;8.134;2023-04-06T09:53:30;10.60;99.90
3300;DHT22;1662;49.310;8.134;2023-04-06T09:55:57;10.70;99.90
3300;DHT22;1662;49.310;8.134;2023-04-06T09:58:34;10.80;99.90
3300;DHT22;1662;49.310;8.134;2023-04-06T10:01:11;11.00;99.90
3300;DHT22;1662;49.310;8.134;2023-04-06T10:06:41;11.20;99.90
3300;DHT22;1662;49.310;8.134;2023-04-06T10:09:07;11.30;99.90
3300;DHT22;1662;49.310;8.134;2023-04-06T10:11:34;11.40;99.90
3300;DHT22;1662;49.310;8.134;2023-04-06T10:14:00;11.50;99.90
3300;DHT22;1662;49.310;8.134;2023-04-06T10:16:26;11.60;99.90
3300;DHT22;1662;49.310;8.134;2023-04-06T10:18:58;11.70;99.90
3300;DHT22;1662;49.310;8.134;2023-04-06T10:21:27;11.90;99.90
3300;DHT22;1662;49.310;8.134;2023-04-06T10:23:59;11.60;98.80
3300;DHT22;1662;49.310;8.134;2023-04-06T10:26:25;12.10;97.10
3300;DHT22;1662;49.310;8.134;2023-04-06T10:28:51;12.30;95.40
3300;DHT22;1662;49.310;8.134;2023-04-06T10:31:27;12.20;94.20
3300;DHT22;1662;49.310;8.134;2023-04-06T10:33:55;12.20;93.40
3300;DHT22;1662;49.310;8.134;2023-04-06T10:36:26;12.10;92.80
3300;DHT22;1662;49.310;8.134;2023-04-06T10:38:59;11.90;91.10
3300;DHT22;1662;49.310;8.134;2023-04-06T10:41:42;11.80;92.20
3300;DHT22;1662;49.310;8.134;2023-04-06T10:44:08;11.80;93.30
3300;DHT22;1662;49.310;8.134;2023-04-06T10:46:55;12.00;90.80
3300;DHT22;1662;49.310;8.134;2023-04-06T10:49:21;11.60;90.40
3300;DHT22;1662;49.310;8.134;2023-04-06T10:51:52;11.80;90.00
3300;DHT22;1662;49.310;8.134;2023-04-06T10:54:21;12.00;89.70
3300;DHT22;1662;49.310;8.134;2023-04-06T10:56:47;12.00;86.50
3300;DHT22;1662;49.310;8.134;2023-04-06T10:59:12;12.10;88.40
3300;DHT22;1662;49.310;8.134;2023-04-06T11:01:40;12.20;83.70
3300;DHT22;1662;49.310;8.134;2023-04-06T11:04:09;12.40;84.40
3300;DHT22;1662;49.310;8.134;2023-04-06T11:06:41;12.40;84.70
3300;DHT22;1662;49.310;8.134;2023-04-06T11:09:26;12.50;86.80
3300;DHT22;1662;49.310;8.134;2023-04-06T11:11:52;12.50;84.50
3300;DHT22;1662;49.310;8.134;2023-04-06T11:14:18;12.50;85.90
3300;DHT22;1662;49.310;8.134;2023-04-06T11:16:46;12.60;84.20
3300;DHT22;1662;49.310;8.134;2023-04-06T11:19:13;12.80;83.30
3300;DHT22;1662;49.310;8.134;2023-04-06T11:21:40;12.90;77.00
3300;DHT22;1662;49.310;8.134;2023-04-06T11:24:10;13.00;78.20
3300;DHT22;1662;49.310;8.134;2023-04-06T11:26:38;13.10;78.50
3300;DHT22;1662;49.310;8.134;2023-04-06T11:29:04;13.30;75.70
3300;DHT22;1662;49.310;8.134;2023-04-06T11:31:30;13.40;79.60
3300;DHT22;1662;49.310;8.134;2023-04-06T11:33:56;13.40;76.00
3300;DHT22;1662;49.310;8.134;2023-04-06T11:36:22;13.50;76.00
3300;DHT22;1662;49.310;8.134;2023-04-06T11:38:48;13.60;76.90
3300;DHT22;1662;49.310;8.134;2023-04-06T11:41:13;13.70;81.30
3300;DHT22;1662;49.310;8.134;2023-04-06T11:43:46;13.70;73.50
3300;DHT22;1662;49.310;8.134;2023-04-06T11:46:17;13.70;76.80
3300;DHT22;1662;49.310;8.134;2023-04-06T11:48:46;13.70;69.10
3300;DHT22;1662;49.310;8.134;2023-04-06T11:51:12;13.70;69.30
3300;DHT22;1662;49.310;8.134;2023-04-06T11:53:46;13.90;69.70
3300;DHT22;1662;49.310;8.134;2023-04-06T11:56:23;14.00;69.70
3300;DHT22;1662;49.310;8.134;2023-04-06T11:58:48;14.10;67.40
3300;DHT22;1662;49.310;8.134;2023-04-06T12:01:14;14.20;69.20
3300;DHT22;1662;49.310;8.134;2023-04-06T12:03:40;14.40;69.10
3300;DHT22;1662;49.310;8.134;2023-04-06T12:06:05;14.40;76.70
3300;DHT22;1662;49.310;8.134;2023-04-06T12:08:31;14.50;73.80
3300;DHT22;1662;49.310;8.134;2023-04-06T12:10:59;14.50;72.00
3300;DHT22;1662;49.310;8.134;2023-04-06T12:13:25;14.60;71.90
3300;DHT22;1662;49.310;8.134;2023-04-06T12:15:50;14.50;70.90
3300;DHT22;1662;49.310;8.134;2023-04-06T12:18:16;14.40;69.80
3300;DHT22;1662;49.310;8.134;2023-04-06T12:20:47;14.50;68.50
3300;DHT22;1662;49.310;8.134;2023-04-06T12:23:12;14.40;69.20
3300;DHT22;1662;49.310;8.134;2023-04-06T12:25:42;14.20;66.80
3300;DHT22;1662;49.310;8.134;2023-04-06T12:28:08;13.90;65.00
3300;DHT22;1662;49.310;8.134;2023-04-06T12:30:35;14.00;65.80
3300;DHT22;1662;49.310;8.134;2023-04-06T12:33:00;14.10;65.30
3300;DHT22;1662;49.310;8.134;2023-04-06T12:35:26;14.30;65.20
3300;DHT22;1662;49.310;8.134;2023-04-06T12:37:52;14.40;65.90
3300;DHT22;1662;49.310;8.134;2023-04-06T12:40:18;14.40;64.70
3300;DHT22;1662;49.310;8.134;2023-04-06T12:42:44;14.40;63.80
3300;DHT22;1662;49.310;8.134;2023-04-06T12:45:11;14.60;63.90
3300;DHT22;1662;49.310;8.134;2023-04-06T12:47:37;14.60;62.10
3300;DHT22;1662;49.310;8.134;2023-04-06T12:50:07;14.60;64.40
3300;DHT22;1662;49.310;8.134;2023-04-06T12:52:32;14.70;63.70
3300;DHT22;1662;49.310;8.134;2023-04-06T12:55:01;14.70;62.50
3300;DHT22;1662;49.310;8.134;2023-04-06T12:57:27;14.70;62.80
3300;DHT22;1662;49.310;8.134;2023-04-06T12:59:52;14.90;63.40
3300;DHT22;1662;49.310;8.134;2023-04-06T13:02:20;14.80;62.80
3300;DHT22;1662;49.310;8.134;2023-04-06T13:04:48;14.70;61.40
3300;DHT22;1662;49.310;8.134;2023-04-06T13:07:13;14.50;62.40
3300;DHT22;1662;49.310;8.134;2023-04-06T13:09:39;14.50;63.30
3300;DHT22;1662;49.310;8.134;2023-04-06T13:12:05;14.40;61.60
3300;DHT22;1662;49.310;8.134;2023-04-06T13:14:31;14.40;62.50
3300;DHT22;1662;49.310;8.134;2023-04-06T13:16:57;14.50;64.10
3300;DHT22;1662;49.310;8.134;2023-04-06T13:19:23;14.50;63.10
3300;DHT22;1662;49.310;8.134;2023-04-06T13:21:48;14.60;63.70
3300;DHT22;1662;49.310;8.134;2023-04-06T13:24:14;14.70;63.60
3300;DHT22;1662;49.310;8.134;2023-04-06T13:26:40;14.60;63.60
3300;DHT22;1662;49.310;8.134;2023-04-06T13:29:06;14.50;63.80
3300;DHT22;1662;49.310;8.134;2023-04-06T13:31:34;14.50;65.00
3300;DHT22;1662;49.310;8.134;2023-04-06T13:34:00;14.50;63.80
3300;DHT22;1662;49.310;8.134;2023-04-06T13:36:26;14.50;64.50
3300;DHT22;1662;49.310;8.134;2023-04-06T13:38:52;14.50;64.40
3300;DHT22;1662;49.310;8.134;2023-04-06T13:41:24;14.50;64.70
3300;DHT22;1662;49.310;8.134;2023-04-06T13:43:51;14.40;64.40
3300;DHT22;1662;49.310;8.134;2023-04-06T13:46:17;14.30;64.30
3300;DHT22;1662;49.310;8.134;2023-04-06T13:48:43;14.40;64.70
3300;DHT22;1662;49.310;8.134;2023-04-06T13:51:13;14.50;65.20
3300;DHT22;1662;49.310;8.134;2023-04-06T13:53:39;14.40;64.90
3300;DHT22;1662;49.310;8.134;2023-04-06T13:56:06;14.40;66.70
3300;DHT22;1662;49.310;8.134;2023-04-06T13:58:32;14.50;66.50
3300;DHT22;1662;49.310;8.134;2023-04-06T14:01:07;14.40;66.30
3300;DHT22;1662;49.310;8.134;2023-04-06T14:03:35;14.50;65.90
3300;DHT22;1662;49.310;8.134;2023-04-06T14:06:01;14.60;66.50
3300;DHT22;1662;49.310;8.134;2023-04-06T14:08:27;14.70;66.10
3300;DHT22;1662;49.310;8.134;2023-04-06T14:10:52;14.70;66.10
3300;DHT22;1662;49.310;8.134;2023-04-06T14:13:19;14.50;65.00
3300;DHT22;1662;49.310;8.134;2023-04-06T14:15:45;14.40;66.60
3300;DHT22;1662;49.310;8.134;2023-04-06T14:18:10;14.40;67.20
3300;DHT22;1662;49.310;8.134;2023-04-06T14:20:36;14.40;67.00
3300;DHT22;1662;49.310;8.134;2023-04-06T14:23:03;14.50;67.10
3300;DHT22;1662;49.310;8.134;2023-04-06T14:25:31;14.50;67.40
3300;DHT22;1662;49.310;8.134;2023-04-06T14:27:57;14.70;67.40
3300;DHT22;1662;49.310;8.134;2023-04-06T14:30:23;14.50;67.00
3300;DHT22;1662;49.310;8.134;2023-04-06T14:32:48;14.40;67.50
3300;DHT22;1662;49.310;8.134;2023-04-06T14:35:14;14.30;67.90
3300;DHT22;1662;49.310;8.134;2023-04-06T14:37:42;14.10;68.80
3300;DHT22;1662;49.310;8.134;2023-04-06T14:40:08;14.10;68.90
3300;DHT22;1662;49.310;8.134;2023-04-06T14:42:35;14.10;70.00
3300;DHT22;1662;49.310;8.134;2023-04-06T14:45:02;14.00;70.90
3300;DHT22;1662;49.310;8.134;2023-04-06T14:47:27;14.10;71.80
3300;DHT22;1662;49.310;8.134;2023-04-06T14:49:53;14.20;71.90
3300;DHT22;1662;49.310;8.134;2023-04-06T14:52:18;14.10;71.30
3300;DHT22;1662;49.310;8.134;2023-04-06T14:54:44;13.90;72.10
3300;DHT22;1662;49.310;8.134;2023-04-06T14:57:10;14.00;73.80
3300;DHT22;1662;49.310;8.134;2023-04-06T14:59:36;14.00;75.00
3300;DHT22;1662;49.310;8.134;2023-04-06T15:02:04;14.10;74.80
3300;DHT22;1662;49.310;8.134;2023-04-06T15:04:30;14.00;74.40
3300;DHT22;1662;49.310;8.134;2023-04-06T15:06:55;13.90;74.60
3300;DHT22;1662;49.310;8.134;2023-04-06T15:09:22;14.00;75.80
3300;DHT22;1662;49.310;8.134;2023-04-06T15:11:48;13.90;78.50
3300;DHT22;1662;49.310;8.134;2023-04-06T15:14:13;13.90;78.40
3300;DHT22;1662;49.310;8.134;2023-04-06T15:16:39;13.80;77.70
3300;DHT22;1662;49.310;8.134;2023-04-06T15:19:05;13.70;76.00
3300;DHT22;1662;49.310;8.134;2023-04-06T15:21:31;13.70;75.60
3300;DHT22;1662;49.310;8.134;2023-04-06T15:23:57;13.70;75.90
3300;DHT22;1662;49.310;8.134;2023-04-06T15:26:23;13.70;76.30
3300;DHT22;1662;49.310;8.134;2023-04-06T15:28:48;13.70;77.40
3300;DHT22;1662;49.310;8.134;2023-04-06T15:31:15;13.70;76.70
3300;DHT22;1662;49.310;8.134;2023-04-06T15:33:41;13.60;77.10
3300;DHT22;1662;49.310;8.134;2023-04-06T15:36:23;13.50;78.90
3300;DHT22;1662;49.310;8.134;2023-04-06T15:38:50;13.50;80.00
3300;DHT22;1662;49.310;8.134;2023-04-06T15:41:16;13.50;81.20
3300;DHT22;1662;49.310;8.134;2023-04-06T15:43:42;13.50;82.70
3300;DHT22;1662;49.310;8.134;2023-04-06T15:46:07;13.50;84.90
3300;DHT22;1662;49.310;8.134;2023-04-06T15:48:33;13.50;85.70
3300;DHT22;1662;49.310;8.134;2023-04-06T15:50:59;13.40;87.80
3300;DHT22;1662;49.310;8.134;2023-04-06T15:53:25;13.30;78.70
3300;DHT22;1662;49.310;8.134;2023-04-06T15:56:00;13.20;78.80
3300;DHT22;1662;49.310;8.134;2023-04-06T15:58:27;13.20;78.90
3300;DHT22;1662;49.310;8.134;2023-04-06T16:00:52;13.10;78.70
3300;DHT22;1662;49.310;8.134;2023-04-06T16:03:18;13.10;79.10
3300;DHT22;1662;49.310;8.134;2023-04-06T16:05:51;13.00;80.70
3300;DHT22;1662;49.310;8.134;2023-04-06T16:08:17;13.30;81.60
3300;DHT22;1662;49.310;8.134;2023-04-06T16:10:44;13.00;80.40
3300;DHT22;1662;49.310;8.134;2023-04-06T16:13:10;13.00;80.10